createdAt,value
2023-04-03T00:01:40.716Z,2.78
2023-04-03T00:04:27.696Z,2.76
2023-04-03T00:07:14.542Z,2.70
2023-04-03T00:10:01.345Z,2.73
2023-04-03T00:12:48.119Z,2.70
2023-04-03T00:15:36.213Z,2.68
2023-04-03T00:18:23.668Z,2.65
2023-04-03T00:21:13.211Z,2.59
2023-04-03T00:24:00.110Z,2.56
2023-04-03T00:26:46.915Z,2.52
2023-04-03T00:29:34.318Z,2.51
2023-04-03T00:32:21.143Z,2.48
2023-04-03T00:35:08.610Z,2.45
2023-04-03T00:37:56.267Z,2.41
2023-04-03T00:40:47.478Z,2.34
2023-04-03T00:43:34.325Z,2.30
2023-04-03T00:46:21.138Z,2.24
2023-04-03T00:49:08.103Z,2.23
2023-04-03T00:51:56.572Z,2.16
2023-04-03T00:54:45.202Z,2.12
2023-04-03T00:57:33.234Z,2.12
2023-04-03T01:00:22.134Z,2.08
2023-04-03T01:03:09.074Z,2.03
2023-04-03T01:05:59.405Z,2.01
2023-04-03T01:08:49.794Z,1.96
2023-04-03T01:11:36.687Z,1.92
2023-04-03T01:14:23.512Z,1.91
2023-04-03T01:17:42.319Z,1.80
2023-04-03T01:20:32.265Z,1.85
2023-04-03T01:23:33.738Z,1.78
2023-04-03T01:26:20.590Z,1.75
2023-04-03T01:29:07.456Z,1.72
2023-04-03T01:31:57.570Z,1.64
2023-04-03T01:34:44.869Z,1.66
2023-04-03T01:37:31.784Z,1.63
2023-04-03T01:40:19.866Z,1.59
2023-04-03T01:43:07.346Z,1.57
2023-04-03T01:45:54.644Z,1.52
2023-04-03T01:48:41.630Z,1.52
2023-04-03T01:51:28.609Z,1.49
2023-04-03T01:54:15.448Z,1.45
2023-04-03T01:57:02.300Z,1.46
2023-04-03T01:59:49.473Z,1.42
2023-04-03T02:02:36.341Z,1.43
2023-04-03T02:05:23.632Z,1.43
2023-04-03T02:08:10.736Z,1.39
2023-04-03T02:10:57.578Z,1.39
2023-04-03T02:13:44.409Z,1.36
2023-04-03T02:16:31.272Z,1.34
2023-04-03T02:19:18.122Z,1.30
2023-04-03T02:22:05.746Z,1.26
2023-04-03T02:24:52.522Z,1.21
2023-04-03T02:27:41.217Z,1.19
2023-04-03T02:30:27.995Z,1.18
2023-04-03T02:33:14.813Z,1.09
2023-04-03T02:36:01.933Z,1.11
2023-04-03T02:38:48.959Z,1.10
2023-04-03T02:41:35.827Z,1.06
2023-04-03T02:44:24.680Z,1.04
2023-04-03T02:47:13.133Z,1.00
2023-04-03T02:49:59.976Z,1.03
2023-04-03T02:52:46.772Z,1.00
2023-04-03T02:55:33.589Z,1.01
2023-04-03T02:58:20.455Z,1.00
2023-04-03T03:01:07.349Z,0.99
2023-04-03T03:03:54.169Z,1.00
2023-04-03T03:06:41.606Z,0.99
2023-04-03T03:09:30.032Z,1.03
2023-04-03T03:12:17.052Z,1.05
2023-04-03T03:15:04.143Z,1.05
2023-04-03T03:17:51.030Z,1.04
2023-04-03T03:20:38.074Z,1.07
2023-04-03T03:23:26.971Z,1.02
2023-04-03T03:26:14.050Z,1.02
2023-04-03T03:29:00.876Z,1.00
2023-04-03T03:31:48.312Z,0.99
2023-04-03T03:34:35.160Z,0.99
2023-04-03T03:37:21.938Z,0.95
2023-04-03T03:40:09.469Z,0.98
2023-04-03T03:42:57.709Z,0.97
2023-04-03T03:45:45.502Z,0.94
2023-04-03T03:48:32.329Z,0.90
2023-04-03T03:51:19.179Z,0.91
2023-04-03T03:54:07.036Z,0.88
2023-04-03T03:56:54.240Z,0.86
2023-04-03T03:59:41.892Z,0.82
2023-04-03T04:02:28.885Z,0.79
2023-04-03T04:05:16.229Z,0.73
2023-04-03T04:08:03.182Z,0.71
2023-04-03T04:10:50.120Z,0.68
2023-04-03T04:13:38.628Z,0.62
2023-04-03T04:16:26.508Z,0.55
2023-04-03T04:19:14.964Z,0.56
2023-04-03T04:22:03.450Z,0.57
2023-04-03T04:24:51.884Z,0.50
2023-04-03T04:27:38.896Z,0.54
2023-04-03T04:30:26.110Z,0.50
2023-04-03T04:33:13.685Z,0.49
2023-04-03T04:36:01.586Z,0.45
2023-04-03T04:38:49.275Z,0.44
2023-04-03T04:41:36.205Z,0.44
2023-04-03T04:44:24.478Z,0.42
2023-04-03T04:47:11.426Z,0.38
2023-04-03T04:49:58.294Z,0.36
2023-04-03T04:52:45.773Z,0.30
2023-04-03T04:55:32.886Z,0.34
2023-04-03T04:58:20.214Z,0.34
2023-04-03T05:01:09.300Z,0.28
2023-04-03T05:04:01.526Z,0.31
2023-04-03T05:06:48.516Z,0.30
2023-04-03T05:09:40.154Z,0.29
2023-04-03T05:12:27.182Z,0.29
2023-04-03T05:15:18.627Z,0.27
2023-04-03T05:18:06.615Z,0.28
2023-04-03T05:20:53.843Z,0.27
2023-04-03T05:23:42.177Z,0.26
2023-04-03T05:26:31.361Z,0.25
2023-04-03T05:29:18.917Z,0.23
2023-04-03T05:32:07.349Z,0.24
2023-04-03T05:34:54.737Z,0.24
2023-04-03T05:37:41.908Z,0.22
2023-04-03T05:40:29.059Z,0.24
2023-04-03T05:43:17.319Z,0.25
2023-04-03T05:46:05.128Z,0.24
2023-04-03T05:48:52.011Z,0.24
2023-04-03T05:51:41.857Z,0.25
2023-04-03T05:54:50.309Z,0.29
2023-04-03T05:57:43.351Z,0.31
2023-04-03T06:00:30.212Z,0.33
2023-04-03T06:03:22.107Z,0.35
2023-04-03T06:06:12.784Z,0.38
2023-04-03T06:08:59.945Z,0.42
2023-04-03T06:11:48.960Z,0.43
2023-04-03T06:14:36.906Z,0.47
2023-04-03T06:17:23.757Z,0.51
2023-04-03T06:20:11.178Z,0.56
2023-04-03T06:22:58.038Z,0.61
2023-04-03T06:25:44.864Z,0.66
2023-04-03T06:28:31.697Z,0.72
2023-04-03T06:31:18.548Z,0.78
2023-04-03T06:34:07.224Z,0.83
2023-04-03T06:36:56.496Z,0.90
2023-04-03T06:39:43.382Z,0.94
2023-04-03T06:42:30.235Z,1.00
2023-04-03T06:45:30.974Z,1.08
2023-04-03T06:48:17.970Z,1.14
2023-04-03T06:51:04.758Z,1.21
2023-04-03T06:53:53.168Z,1.28
2023-04-03T06:56:39.906Z,1.35
2023-04-03T06:59:26.728Z,1.43
2023-04-03T07:02:13.556Z,1.51
2023-04-03T07:05:00.471Z,1.62
2023-04-03T07:07:47.277Z,1.69
2023-04-03T07:10:34.044Z,1.79
2023-04-03T07:13:20.904Z,1.86
2023-04-03T07:16:08.389Z,1.95
2023-04-03T07:18:55.190Z,2.06
2023-04-03T07:21:41.998Z,2.16
2023-04-03T07:24:28.779Z,2.27
2023-04-03T07:27:15.592Z,2.36
2023-04-03T07:30:02.887Z,2.46
2023-04-03T07:32:49.745Z,2.57
2023-04-03T07:35:36.830Z,2.68
2023-04-03T07:38:23.942Z,2.79
2023-04-03T07:41:19.501Z,2.91
2023-04-03T07:44:06.381Z,3.02
2023-04-03T07:46:53.128Z,3.13
2023-04-03T07:49:40.018Z,3.22
2023-04-03T07:52:26.813Z,3.38
2023-04-03T07:55:13.590Z,3.52
2023-04-03T07:58:00.520Z,3.63
2023-04-03T08:00:47.949Z,3.78
2023-04-03T08:03:34.925Z,3.88
2023-04-03T08:06:29.421Z,4.10
2023-04-03T08:09:24.510Z,4.27
2023-04-03T08:12:11.369Z,4.43
2023-04-03T08:14:58.397Z,4.58
2023-04-03T08:17:45.263Z,4.70
2023-04-03T08:20:32.127Z,4.88
2023-04-03T08:23:20.172Z,5.02
2023-04-03T08:26:13.021Z,5.21
2023-04-03T08:28:59.805Z,5.38
2023-04-03T08:31:46.534Z,5.50
2023-04-03T08:34:33.358Z,5.64
2023-04-03T08:37:20.178Z,5.84
2023-04-03T08:40:13.748Z,6.00
2023-04-03T08:43:20.694Z,6.16
2023-04-03T08:46:14.820Z,6.31
2023-04-03T08:49:01.707Z,6.53
2023-04-03T08:51:49.998Z,6.71
2023-04-03T08:55:05.414Z,6.90
2023-04-03T08:58:02.464Z,7.08
2023-04-03T09:00:58.102Z,7.25
2023-04-03T09:03:44.971Z,7.44
2023-04-03T09:06:33.658Z,7.61
2023-04-03T09:09:36.045Z,7.79
2023-04-03T09:12:32.895Z,7.97
2023-04-03T09:15:35.296Z,8.25
2023-04-03T09:18:31.618Z,8.50
2023-04-03T09:21:28.414Z,8.89
2023-04-03T09:24:17.985Z,9.45
2023-04-03T09:27:10.104Z,10.03
2023-04-03T09:29:58.297Z,10.73
2023-04-03T09:32:48.119Z,11.34
2023-04-03T09:35:47.516Z,11.80
2023-04-03T09:38:35.221Z,12.33
2023-04-03T09:41:22.242Z,12.60
2023-04-03T09:44:23.985Z,12.92
2023-04-03T09:47:25.177Z,13.08
2023-04-03T09:50:14.998Z,13.32
2023-04-03T09:53:07.222Z,13.48
2023-04-03T09:55:54.072Z,13.61
2023-04-03T09:58:50.388Z,13.74
2023-04-03T10:01:40.489Z,13.79
2023-04-03T10:04:38.983Z,14.01
2023-04-03T10:07:35.910Z,14.34
2023-04-03T10:10:23.411Z,14.60
2023-04-03T10:13:20.649Z,14.56
2023-04-03T10:16:13.346Z,14.61
2023-04-03T10:19:14.324Z,14.76
2023-04-03T10:22:11.676Z,15.01
2023-04-03T10:25:10.348Z,15.31
2023-04-03T10:28:01.094Z,15.56
2023-04-03T10:30:50.860Z,15.91
2023-04-03T10:33:51.328Z,16.20
2023-04-03T10:36:50.395Z,16.33
2023-04-03T10:40:18.795Z,16.18
2023-04-03T10:43:43.684Z,15.92
2023-04-03T10:46:45.580Z,15.91
2023-04-03T10:49:50.252Z,16.13
2023-04-03T10:52:48.610Z,16.14
2023-04-03T10:55:38.309Z,15.92
2023-04-03T10:58:34.927Z,15.83
2023-04-03T11:01:28.275Z,15.91
2023-04-03T11:04:19.048Z,16.08
2023-04-03T11:07:15.913Z,16.12
2023-04-03T11:10:26.934Z,16.15
2023-04-03T11:13:53.455Z,16.17
2023-04-03T11:16:53.999Z,16.24
2023-04-03T11:19:44.065Z,16.12
2023-04-03T11:22:43.770Z,15.86
2023-04-03T11:25:33.826Z,15.68
2023-04-03T11:28:20.637Z,15.59
2023-04-03T11:31:43.267Z,15.39
2023-04-03T11:34:38.153Z,15.22
2023-04-03T11:37:44.064Z,15.05
2023-04-03T11:40:35.203Z,14.85
2023-04-03T11:43:31.345Z,14.54
2023-04-03T11:46:18.264Z,14.36
2023-04-03T11:49:05.081Z,14.27
2023-04-03T11:51:51.890Z,14.11
2023-04-03T11:54:44.780Z,14.00
2023-04-03T11:57:58.335Z,14.01
2023-04-03T12:00:45.177Z,14.17
2023-04-03T12:03:59.060Z,14.56
2023-04-03T12:06:45.826Z,14.91
2023-04-03T12:09:40.677Z,15.22
2023-04-03T12:12:31.893Z,15.37
2023-04-03T12:15:45.183Z,15.46
2023-04-03T12:18:42.179Z,15.65
2023-04-03T12:21:32.129Z,15.91
2023-04-03T12:24:21.892Z,15.86
2023-04-03T12:27:35.704Z,15.71
2023-04-03T12:30:26.939Z,15.64
2023-04-03T12:33:27.596Z,15.51
2023-04-03T12:36:34.493Z,15.33
2023-04-03T12:39:40.155Z,15.24
2023-04-03T12:42:32.943Z,15.11
2023-04-03T12:45:26.182Z,15.00
2023-04-03T12:48:17.405Z,14.90
2023-04-03T12:51:05.674Z,14.95
2023-04-03T12:53:58.686Z,14.83
2023-04-03T12:56:45.498Z,14.77
2023-04-03T12:59:32.314Z,14.73
2023-04-03T13:02:23.700Z,14.78
2023-04-03T13:05:16.051Z,14.95
2023-04-03T13:08:06.417Z,15.16
2023-04-03T13:11:02.172Z,15.31
2023-04-03T13:14:00.638Z,15.35
2023-04-03T13:16:55.267Z,15.40
2023-04-03T13:19:43.706Z,15.44
2023-04-03T13:22:41.083Z,15.52
2023-04-03T13:25:32.303Z,15.68
2023-04-03T13:28:23.553Z,15.85
2023-04-03T13:31:13.423Z,16.01
2023-04-03T13:34:20.751Z,16.17
2023-04-03T13:37:12.368Z,16.24
2023-04-03T13:40:08.143Z,16.22
2023-04-03T13:43:19.819Z,16.30
2023-04-03T13:46:12.679Z,16.44
2023-04-03T13:49:23.464Z,16.61
2023-04-03T13:52:29.786Z,16.70
2023-04-03T13:55:27.100Z,16.84
2023-04-03T13:58:13.875Z,16.99
2023-04-03T14:01:19.374Z,17.13
2023-04-03T14:04:25.198Z,17.13
2023-04-03T14:07:13.627Z,17.01
2023-04-03T14:10:00.472Z,16.81
2023-04-03T14:12:47.452Z,16.75
2023-04-03T14:15:34.271Z,16.88
2023-04-03T14:18:21.316Z,16.79
2023-04-03T14:21:08.134Z,16.96
2023-04-03T14:23:55.390Z,17.33
2023-04-03T14:26:42.286Z,17.70
2023-04-03T14:29:29.182Z,18.07
2023-04-03T14:32:17.792Z,18.39
2023-04-03T14:35:05.040Z,18.64
2023-04-03T14:37:53.630Z,18.96
2023-04-03T14:40:40.671Z,19.31
2023-04-03T14:43:27.638Z,19.67
2023-04-03T14:46:17.740Z,19.86
2023-04-03T14:49:14.882Z,19.96
2023-04-03T14:52:01.761Z,20.22
2023-04-03T14:54:49.661Z,20.45
2023-04-03T14:57:38.762Z,20.58
2023-04-03T15:00:25.623Z,20.53
2023-04-03T15:03:21.768Z,20.48
2023-04-03T15:06:12.457Z,20.34
2023-04-03T15:08:59.321Z,19.92
2023-04-03T15:11:46.248Z,19.64
2023-04-03T15:14:37.423Z,19.49
2023-04-03T15:17:34.845Z,19.35
2023-04-03T15:20:24.864Z,19.23
2023-04-03T15:23:17.307Z,19.05
2023-04-03T15:26:05.461Z,19.11
2023-04-03T15:28:52.456Z,19.27
2023-04-03T15:31:39.331Z,19.28
2023-04-03T15:34:26.248Z,19.24
2023-04-03T15:37:13.036Z,19.44
2023-04-03T15:40:00.066Z,19.58
2023-04-03T15:42:46.880Z,19.52
2023-04-03T15:45:36.174Z,19.27
2023-04-03T15:48:23.031Z,19.11
2023-04-03T15:51:09.900Z,19.01
2023-04-03T15:53:56.775Z,18.94
2023-04-03T15:56:43.798Z,18.80
2023-04-03T15:59:30.639Z,18.90
2023-04-03T16:02:17.587Z,19.04
2023-04-03T16:05:04.669Z,19.30
2023-04-03T16:07:52.270Z,19.62
2023-04-03T16:10:39.796Z,19.91
2023-04-03T16:13:26.789Z,20.30
2023-04-03T16:16:13.728Z,20.70
2023-04-03T16:19:00.634Z,20.90
2023-04-03T16:21:48.083Z,21.22
2023-04-03T16:24:34.926Z,21.68
2023-04-03T16:27:22.650Z,22.12
2023-04-03T16:30:10.437Z,22.37
2023-04-03T16:32:58.006Z,22.69
2023-04-03T16:35:44.870Z,23.07
2023-04-03T16:38:31.741Z,23.32
2023-04-03T16:41:18.683Z,23.40
2023-04-03T16:44:05.522Z,23.46
2023-04-03T16:46:52.541Z,23.46
2023-04-03T16:49:39.481Z,23.37
2023-04-03T16:52:26.367Z,23.25
2023-04-03T16:55:13.273Z,23.21
2023-04-03T16:58:00.073Z,23.27
2023-04-03T17:00:47.030Z,23.23
2023-04-03T17:03:33.847Z,23.17
2023-04-03T17:06:22.376Z,23.15
2023-04-03T17:09:09.841Z,23.02
2023-04-03T17:11:56.618Z,22.90
2023-04-03T17:14:43.853Z,22.84
2023-04-03T17:17:31.634Z,22.78
2023-04-03T17:20:18.628Z,22.71
2023-04-03T17:23:06.043Z,22.60
2023-04-03T17:25:53.061Z,21.96
2023-04-03T17:28:39.900Z,20.89
2023-04-03T17:31:26.714Z,19.79
2023-04-03T17:34:13.577Z,18.76
2023-04-03T17:37:00.437Z,17.98
2023-04-03T17:39:47.318Z,17.24
2023-04-03T17:42:34.153Z,16.51
2023-04-03T17:45:21.042Z,15.84
2023-04-03T17:48:07.964Z,15.25
2023-04-03T17:50:54.929Z,14.72
2023-04-03T17:53:42.350Z,14.28
2023-04-03T17:56:29.171Z,13.85
2023-04-03T17:59:16.973Z,13.48
2023-04-03T18:02:03.853Z,13.14
2023-04-03T18:04:52.182Z,12.83
2023-04-03T18:07:40.186Z,12.49
2023-04-03T18:10:27.566Z,12.21
2023-04-03T18:13:15.957Z,11.97
2023-04-03T18:16:11.108Z,11.66
2023-04-03T18:19:12.127Z,11.41
2023-04-03T18:22:08.487Z,11.13
2023-04-03T18:24:57.183Z,10.85
2023-04-03T18:27:46.332Z,10.61
2023-04-03T18:30:34.767Z,10.44
2023-04-03T18:33:21.548Z,10.21
2023-04-03T18:36:08.756Z,10.00
2023-04-03T18:38:55.994Z,9.82
2023-04-03T18:41:43.238Z,9.64
2023-04-03T18:44:31.379Z,9.44
2023-04-03T18:47:18.768Z,9.28
2023-04-03T18:50:06.817Z,9.11
2023-04-03T18:52:53.598Z,8.94
2023-04-03T18:55:40.907Z,8.78
2023-04-03T18:58:27.874Z,8.62
2023-04-03T19:01:15.141Z,8.45
2023-04-03T19:04:02.443Z,8.29
2023-04-03T19:06:49.351Z,8.16
2023-04-03T19:09:36.278Z,8.01
2023-04-03T19:12:23.344Z,7.88
2023-04-03T19:15:11.139Z,7.72
2023-04-03T19:17:57.981Z,7.58
2023-04-03T19:20:44.846Z,7.49
2023-04-03T19:23:31.715Z,7.37
2023-04-03T19:26:19.013Z,7.25
2023-04-03T19:29:05.849Z,7.16
2023-04-03T19:31:52.834Z,7.03
2023-04-03T19:34:39.582Z,6.91
2023-04-03T19:37:27.982Z,6.82
2023-04-03T19:40:14.803Z,6.73
2023-04-03T19:43:01.658Z,6.66
2023-04-03T19:45:49.578Z,6.59
2023-04-03T19:48:36.393Z,6.53
2023-04-03T19:51:23.488Z,6.44
2023-04-03T19:54:10.370Z,6.38
2023-04-03T19:56:57.860Z,6.33
2023-04-03T19:59:44.692Z,6.25
2023-04-03T20:02:31.482Z,6.21
2023-04-03T20:05:18.356Z,6.10
2023-04-03T20:08:05.216Z,6.01
2023-04-03T20:10:52.301Z,5.96
2023-04-03T20:13:39.173Z,5.90
2023-04-03T20:16:26.204Z,5.84
2023-04-03T20:19:13.701Z,5.76
2023-04-03T20:22:01.626Z,5.69
2023-04-03T20:24:48.432Z,5.63
2023-04-03T20:27:35.591Z,5.57
2023-04-03T20:30:22.459Z,5.48
2023-04-03T20:33:09.493Z,5.44
2023-04-03T20:35:57.633Z,5.35
2023-04-03T20:38:44.480Z,5.33
2023-04-03T20:41:31.282Z,5.28
2023-04-03T20:44:18.152Z,5.18
2023-04-03T20:47:05.358Z,5.14
2023-04-03T20:49:52.205Z,5.10
2023-04-03T20:52:39.163Z,5.00
2023-04-03T20:55:26.413Z,4.99
2023-04-03T20:58:13.238Z,4.93
2023-04-03T21:01:00.406Z,4.89
2023-04-03T21:03:48.818Z,4.83
2023-04-03T21:07:13.543Z,4.78
2023-04-03T21:10:38.185Z,4.70
2023-04-03T21:14:02.742Z,4.63
2023-04-03T21:16:49.489Z,4.57
2023-04-03T21:19:36.333Z,4.48
2023-04-03T21:22:23.191Z,4.40
2023-04-03T21:25:10.160Z,4.35
2023-04-03T21:27:57.068Z,4.30
2023-04-03T21:30:45.282Z,4.25
2023-04-03T21:33:32.214Z,4.21
2023-04-03T21:36:19.023Z,4.16
2023-04-03T21:39:05.821Z,4.13
2023-04-03T21:41:52.823Z,4.09
2023-04-03T21:44:39.602Z,4.06
2023-04-03T21:47:26.462Z,4.05
2023-04-03T21:50:13.394Z,4.02
2023-04-03T21:53:00.167Z,3.98
2023-04-03T21:55:54.255Z,3.97
2023-04-03T21:58:41.119Z,3.87
2023-04-03T22:01:27.929Z,3.90
2023-04-03T22:04:14.824Z,3.85
2023-04-03T22:07:01.616Z,3.81
2023-04-03T22:09:48.470Z,3.72
2023-04-03T22:12:35.258Z,3.70
2023-04-03T22:15:22.065Z,3.66
2023-04-03T22:18:10.153Z,3.62
2023-04-03T22:20:56.946Z,3.59
2023-04-03T22:23:43.728Z,3.57
2023-04-03T22:26:30.582Z,3.55
2023-04-03T22:29:17.389Z,3.48
2023-04-03T22:32:04.362Z,3.46
2023-04-03T22:34:51.165Z,3.46
2023-04-03T22:37:37.974Z,3.42
2023-04-03T22:40:24.815Z,3.43
2023-04-03T22:43:12.177Z,3.41
2023-04-03T22:46:03.529Z,3.40
2023-04-03T22:48:50.365Z,3.38
2023-04-03T22:51:37.138Z,3.35
2023-04-03T22:54:23.987Z,3.34
2023-04-03T22:57:10.890Z,3.32
2023-04-03T22:59:57.698Z,3.28
2023-04-03T23:02:44.512Z,3.21
2023-04-03T23:05:31.340Z,3.12
2023-04-03T23:08:19.304Z,3.06
2023-04-03T23:11:06.641Z,3.01
2023-04-03T23:13:53.420Z,2.94
2023-04-03T23:16:40.277Z,2.88
2023-04-03T23:19:27.091Z,2.81
2023-04-03T23:22:13.859Z,2.80
2023-04-03T23:25:00.642Z,2.73
2023-04-03T23:27:51.272Z,2.71
2023-04-03T23:30:38.166Z,2.68
2023-04-03T23:33:25.132Z,2.64
2023-04-03T23:36:12.218Z,2.61
2023-04-03T23:38:58.997Z,2.58
2023-04-03T23:41:46.814Z,2.56
2023-04-03T23:44:34.634Z,2.51
2023-04-03T23:47:21.463Z,2.50
2023-04-03T23:50:08.827Z,2.46
2023-04-03T23:52:55.661Z,2.43
2023-04-03T23:55:42.601Z,2.40
2023-04-03T23:58:29.416Z,2.36
